Time;durP1;ratioP1;P1;durP2;ratioP2;P2;SDS_P1;SDS_P2;PMS_P1;PMS_P2;Temp;Humidity;BMP_temperature;BMP_pressure;BME280_temperature;BME280_humidity;BME280_pressure;Samples;Min_cycle;Max_cycle;Signal;HPM_P1;HPM_P2
2023/01/07 00:01:40;;;;;;;8.35;6.82;;;;;;;14.75;63.13;101535.69;6181480;23;20023;-70
2023/01/07 00:04:10;;;;;;;7.75;6.55;;;;;;;14.76;62.78;101533.84;6181743;23;20447;-70
2023/01/07 00:06:38;;;;;;;9.13;6.22;;;;;;;14.73;63.14;101525.97;6182014;23;20017;-70
2023/01/07 00:09:08;;;;;;;7.68;6.88;;;;;;;14.72;62.70;101525.09;6181814;23;20021;-70
2023/01/07 00:11:37;;;;;;;7.15;6.45;;;;;;;14.74;62.78;101524.97;6181232;23;20443;-72
2023/01/07 00:14:06;;;;;;;7.65;6.30;;;;;;;14.74;63.14;101522.28;6181821;23;20378;-70
2023/01/07 00:16:34;;;;;;;8.13;6.22;;;;;;;14.71;63.21;101517.97;6181591;23;20376;-70
2023/01/07 00:19:03;;;;;;;8.27;6.40;;;;;;;14.70;63.07;101518.09;6181994;23;20346;-70
2023/01/07 00:21:30;;;;;;;8.85;6.68;;;;;;;14.72;62.73;101518.84;6181473;23;20025;-71
2023/01/07 00:23:59;;;;;;;8.57;6.85;;;;;;;14.71;62.80;101515.28;6181621;23;20017;-70
2023/01/07 00:26:29;;;;;;;6.72;6.03;;;;;;;14.72;62.80;101516.13;6181695;23;20339;-70
2023/01/07 00:28:56;;;;;;;9.90;6.80;;;;;;;14.71;62.95;101517.13;6181874;23;20013;-69
2023/01/07 00:31:28;;;;;;;8.00;6.53;;;;;;;14.69;63.02;101514.53;6181122;22;20017;-69
2023/01/07 00:36:25;;;;;;;7.47;6.25;;;;;;;14.71;62.97;101506.31;6181882;23;20017;-71
2023/01/07 00:39:00;;;;;;;7.75;6.03;;;;;;;14.72;63.18;101505.31;6155044;23;20452;-71
2023/01/07 00:41:28;;;;;;;8.18;5.93;;;;;;;14.72;63.10;101499.91;6155118;23;20028;-70
2023/01/07 00:43:55;;;;;;;6.88;5.60;;;;;;;14.71;62.72;101496.34;6181461;23;20017;-70
2023/01/07 00:46:21;;;;;;;7.35;5.75;;;;;;;14.70;62.94;101497.31;6181144;23;20013;-70
2023/01/07 00:48:49;;;;;;;7.65;6.40;;;;;;;14.67;63.13;101496.69;6154975;23;20017;-70
2023/01/07 00:51:16;;;;;;;7.22;5.97;;;;;;;14.66;62.78;101497.69;6181408;23;20017;-69
2023/01/07 00:53:43;;;;;;;6.45;5.32;;;;;;;14.66;63.02;101503.09;6181303;23;20072;-70
2023/01/07 00:56:11;;;;;;;6.90;5.60;;;;;;;14.64;62.75;101503.22;6181233;23;20133;-70
2023/01/07 00:58:38;;;;;;;6.97;5.93;;;;;;;14.63;62.73;101486.13;6180988;23;20013;-70
2023/01/07 01:01:04;;;;;;;6.40;5.80;;;;;;;14.60;62.77;101491.78;6181328;22;20021;-70
2023/01/07 01:03:32;;;;;;;6.65;5.70;;;;;;;14.59;62.71;101494.59;6154939;23;20078;-71
2023/01/07 01:06:04;;;;;;;8.02;5.95;;;;;;;14.56;62.71;101490.28;6181370;23;20019;-70
2023/01/07 01:08:30;;;;;;;7.93;5.18;;;;;;;14.55;62.90;101479.59;6155103;23;20029;-70
2023/01/07 01:11:07;;;;;;;5.50;4.57;;;;;;;14.52;62.83;101480.69;6181197;23;20017;-70
2023/01/07 01:13:34;;;;;;;11.45;5.03;;;;;;;14.48;62.60;101481.06;6181172;23;20020;-71
2023/01/07 01:16:05;;;;;;;7.28;5.30;;;;;;;14.46;63.03;101464.09;6154936;23;20340;-71
2023/01/07 01:18:32;;;;;;;7.60;5.15;;;;;;;14.44;62.98;101474.16;6181276;23;20013;-70
2023/01/07 01:21:05;;;;;;;6.85;5.72;;;;;;;14.41;62.69;101469.81;6181054;23;20443;-69
2023/01/07 01:23:33;;;;;;;6.22;5.10;;;;;;;14.39;62.54;101466.38;6180846;23;20017;-71
2023/01/07 01:26:09;;;;;;;8.20;5.95;;;;;;;14.35;62.58;101462.19;6154824;23;20328;-71
2023/01/07 01:28:36;;;;;;;6.57;5.53;;;;;;;14.36;62.64;101463.06;6155025;23;20021;-72
2023/01/07 01:31:04;;;;;;;7.18;6.35;;;;;;;14.31;62.85;101453.47;6154766;23;20044;-71
2023/01/07 01:33:41;;;;;;;7.68;5.88;;;;;;;14.29;62.57;101457.25;6154466;23;20025;-71
2023/01/07 01:36:11;;;;;;;7.07;5.60;;;;;;;14.26;62.84;101452.09;6154778;23;20024;-71
2023/01/07 01:38:39;;;;;;;7.60;5.18;;;;;;;14.23;62.94;101457.72;6154903;22;20066;-69
2023/01/07 01:41:06;;;;;;;7.68;5.85;;;;;;;14.20;62.54;101455.28;6154673;22;20509;-71
2023/01/07 01:43:38;;;;;;;6.70;5.50;;;;;;;14.16;62.87;101454.66;6154433;23;20052;-69
2023/01/07 01:46:17;;;;;;;6.22;5.50;;;;;;;14.14;62.73;101455.75;6155039;23;20321;-71
2023/01/07 01:48:51;;;;;;;6.97;4.97;;;;;;;14.13;62.68;101459.41;6156679;23;20470;-69
2023/01/07 01:51:22;;;;;;;5.38;4.88;;;;;;;14.10;63.15;101457.78;6156595;22;20056;-70
2023/01/07 01:53:50;;;;;;;6.70;5.93;;;;;;;14.08;62.71;101448.94;6155966;23;20017;-70
2023/01/07 01:56:24;;;;;;;6.05;5.05;;;;;;;14.04;62.71;101451.97;6155963;23;20024;-70
2023/01/07 01:58:57;;;;;;;5.97;5.38;;;;;;;14.02;63.07;101452.09;6155982;23;20461;-69
2023/01/07 02:01:24;;;;;;;11.90;5.60;;;;;;;13.99;63.22;101442.38;6156033;22;20051;-70
2023/01/07 02:03:51;;;;;;;6.72;5.70;;;;;;;13.98;63.07;101442.50;6182151;23;20350;-70
2023/01/07 02:06:25;;;;;;;6.82;5.53;;;;;;;13.95;63.16;101445.44;6155781;23;20412;-70
2023/01/07 02:08:53;;;;;;;9.70;5.43;;;;;;;13.93;63.14;101437.47;6182387;23;20489;-70
2023/01/07 02:11:40;;;;;;;7.22;5.45;;;;;;;13.93;62.77;101448.25;6155797;23;20050;-71
2023/01/07 02:14:19;;;;;;;8.00;5.40;;;;;;;13.92;63.19;101448.38;6156100;22;20455;-70
2023/01/07 02:16:56;;;;;;;6.25;5.63;;;;;;;13.92;63.26;101451.94;6182161;23;20575;-71
2023/01/07 02:19:45;;;;;;;7.82;5.70;;;;;;;13.92;63.13;101448.38;6155928;23;20021;-71
2023/01/07 02:22:47;;;;;;;7.32;5.32;;;;;;;13.92;63.06;101443.84;6155669;23;20017;-70
2023/01/07 02:25:57;;;;;;;5.95;5.35;;;;;;;13.90;63.31;101442.22;6156260;22;20088;-70
2023/01/07 02:28:54;;;;;;;7.28;5.10;;;;;;;13.90;63.42;101444.94;6181936;23;20059;-73
2023/01/07 02:31:23;;;;;;;5.82;5.22;;;;;;;13.90;63.00;101442.22;6182096;23;20517;-70
2023/01/07 02:34:03;;;;;;;6.82;5.80;;;;;;;13.89;63.10;101445.91;6155736;23;20104;-71
2023/01/07 02:36:45;;;;;;;6.40;5.20;;;;;;;13.89;63.43;101446.75;6155637;23;20455;-69
2023/01/07 02:39:46;;;;;;;7.20;5.30;;;;;;;13.92;63.29;101445.69;6182917;23;20024;-69
2023/01/07 02:42:42;;;;;;;6.55;5.82;;;;;;;13.92;63.37;101446.53;6182101;23;20010;-70
2023/01/07 02:46:01;;;;;;;6.55;5.35;;;;;;;13.96;63.41;101442.63;6182317;23;20017;-70
2023/01/07 02:48:30;;;;;;;6.82;5.30;;;;;;;14.00;63.36;101441.41;6157128;23;20020;-69
2023/01/07 02:50:57;;;;;;;6.85;5.85;;;;;;;14.00;63.36;101440.56;6182092;23;20017;-70
2023/01/07 02:53:24;;;;;;;7.65;5.22;;;;;;;13.99;63.48;101437.00;6155714;22;20017;-70
2023/01/07 02:55:57;;;;;;;8.98;5.72;;;;;;;13.99;63.45;101439.69;6156065;22;20024;-69
2023/01/07 02:58:40;;;;;;;9.40;5.47;;;;;;;13.98;63.36;101443.38;6155769;23;20053;-70
2023/01/07 03:01:25;;;;;;;7.63;5.15;;;;;;;13.98;63.25;101432.56;6181921;22;20013;-71
2023/01/07 03:04:04;;;;;;;6.88;5.20;;;;;;;13.98;63.49;101420.91;6181719;23;20463;-71
2023/01/07 03:07:04;;;;;;;6.65;4.43;;;;;;;13.96;63.58;101421.03;6182113;23;20017;-70
2023/01/07 03:09:49;;;;;;;5.80;4.53;;;;;;;13.96;63.23;101415.63;6155683;23;20340;-71
2023/01/07 03:12:30;;;;;;;5.93;4.43;;;;;;;13.98;63.19;101415.50;6156163;23;20391;-69
2023/01/07 03:15:06;;;;;;;5.13;4.60;;;;;;;13.95;63.40;101411.19;6155547;23;20083;-69
2023/01/07 03:17:42;;;;;;;9.80;4.82;;;;;;;13.97;63.68;101411.06;6182261;22;20017;-70
2023/01/07 03:20:11;;;;;;;5.00;4.47;;;;;;;13.95;63.29;101400.41;6155533;23;20383;-70
2023/01/07 03:22:41;;;;;;;7.55;5.05;;;;;;;13.95;63.60;101404.94;6181741;23;20063;-70
2023/01/07 03:25:11;;;;;;;6.22;4.70;;;;;;;13.96;63.47;101398.56;6155596;23;20017;-70
2023/01/07 03:27:40;;;;;;;4.88;4.38;;;;;;;13.98;63.35;101392.06;6181831;23;20019;-70
2023/01/07 03:30:12;;;;;;;6.13;4.28;;;;;;;14.00;63.55;101397.34;6155452;23;20019;-69
2023/01/07 03:32:48;;;;;;;6.43;4.68;;;;;;;14.00;63.50;101398.19;6181501;23;20013;-70
2023/01/07 03:35:17;;;;;;;7.28;3.85;;;;;;;14.00;63.43;101386.53;6155535;23;20017;-69
2023/01/07 03:37:45;;;;;;;4.95;4.30;;;;;;;14.00;63.28;101382.00;6181867;23;20091;-70
2023/01/07 03:40:12;;;;;;;5.50;4.55;;;;;;;13.99;63.49;101380.28;6155609;23;20021;-70
2023/01/07 03:42:40;;;;;;;4.93;4.07;;;;;;;14.00;63.34;101371.19;6155360;23;20028;-70
2023/01/07 03:45:36;;;;;;;6.50;4.13;;;;;;;14.01;63.41;101372.06;6195833;22;20024;-70
2023/01/07 03:48:03;;;;;;;4.90;4.15;;;;;;;14.00;63.41;101367.63;6155520;22;20052;-70
2023/01/07 03:50:35;;;;;;;7.05;3.90;;;;;;;14.01;63.42;101380.16;6155526;23;20066;-69
2023/01/07 03:53:02;;;;;;;6.18;3.75;;;;;;;14.01;63.65;101374.75;6155304;23;20141;-70
2023/01/07 03:55:32;;;;;;;6.22;4.20;;;;;;;14.00;63.71;101379.31;6155307;23;20014;-69
2023/01/07 03:57:59;;;;;;;6.18;4.35;;;;;;;14.01;63.55;101369.34;6155489;23;20059;-69
2023/01/07 04:00:26;;;;;;;7.78;4.72;;;;;;;14.01;63.54;101366.66;6181532;23;20443;-69
2023/01/07 04:03:01;;;;;;;7.07;4.18;;;;;;;14.03;63.56;101369.25;6132065;22;20340;-69
2023/01/07 04:05:35;;;;;;;5.65;4.43;;;;;;;14.04;63.37;101365.56;6155455;23;20070;-69
2023/01/07 04:08:02;;;;;;;5.20;3.80;;;;;;;14.02;63.46;101360.28;6181231;23;20013;-69
2023/01/07 04:10:32;;;;;;;4.78;3.88;;;;;;;14.00;63.53;101359.53;6182105;23;20020;-70
2023/01/07 04:12:59;;;;;;;6.70;4.53;;;;;;;13.98;63.68;101359.66;6155376;23;20324;-70
2023/01/07 04:15:25;;;;;;;9.05;3.92;;;;;;;13.98;63.59;101351.56;6155382;23;20128;-70
2023/01/07 04:17:52;;;;;;;4.82;3.50;;;;;;;13.97;63.29;101348.97;6182081;23;20071;-70
2023/01/07 04:20:19;;;;;;;6.43;4.00;;;;;;;13.96;63.53;101342.72;6155128;23;20043;-70
2023/01/07 04:22:45;;;;;;;6.25;4.25;;;;;;;13.95;63.40;101342.81;6181470;23;20017;-69
2023/01/07 04:25:12;;;;;;;10.95;4.00;;;;;;;13.95;63.32;101342.81;6181775;23;20013;-70
2023/01/07 04:27:39;;;;;;;7.10;4.05;;;;;;;13.96;63.32;101349.94;6155276;23;20074;-70
2023/01/07 04:30:06;;;;;;;4.82;4.20;;;;;;;13.97;63.76;101340.88;6154956;23;20066;-70
2023/01/07 04:32:34;;;;;;;5.15;3.85;;;;;;;13.99;63.56;101339.78;6155002;23;20024;-70
2023/01/07 04:35:01;;;;;;;5.82;3.85;;;;;;;14.00;63.79;101332.53;6155307;23;20021;-69
2023/01/07 04:37:28;;;;;;;5.68;4.30;;;;;;;14.02;63.71;101335.97;6155308;23;20064;-69
2023/01/07 04:39:56;;;;;;;6.97;3.85;;;;;;;14.02;63.71;101321.59;6154946;23;20471;-69
2023/01/07 04:42:22;;;;;;;7.07;4.00;;;;;;;14.03;63.69;101324.19;6154939;23;20032;-69
2023/01/07 04:44:49;;;;;;;5.13;3.85;;;;;;;14.05;63.59;101315.97;6181720;23;20017;-71
2023/01/07 04:47:15;;;;;;;4.38;3.80;;;;;;;14.05;63.48;101313.25;6181418;23;20017;-70
2023/01/07 04:49:42;;;;;;;4.50;3.53;;;;;;;14.06;63.30;101307.75;6181949;23;20082;-71
2023/01/07 04:52:09;;;;;;;5.35;4.57;;;;;;;14.07;63.64;101297.81;6154885;23;20113;-70
2023/01/07 04:54:36;;;;;;;5.88;3.83;;;;;;;14.07;63.27;101298.66;6154928;23;20096;-70
2023/01/07 04:57:03;;;;;;;5.90;3.80;;;;;;;14.04;63.34;101303.44;6155056;22;20019;-70
2023/01/07 04:59:30;;;;;;;4.35;3.75;;;;;;;14.05;63.52;101294.38;6155068;23;20021;-71
2023/01/07 05:01:59;;;;;;;6.18;3.80;;;;;;;14.03;63.29;101299.03;6154639;23;20021;-70
2023/01/07 05:04:26;;;;;;;5.18;3.97;;;;;;;14.01;63.48;101299.16;6154816;23;20080;-70
2023/01/07 05:06:53;;;;;;;4.75;4.10;;;;;;;13.99;63.30;101296.56;6154761;23;20021;-70
2023/01/07 05:09:22;;;;;;;5.45;3.85;;;;;;;13.96;63.30;101287.84;6154984;23;20025;-71
2023/01/07 05:11:49;;;;;;;5.45;4.13;;;;;;;13.94;63.41;101296.06;6181090;23;20109;-70
2023/01/07 05:14:16;;;;;;;6.63;4.40;;;;;;;13.93;63.08;101288.09;6130420;23;20062;-69
2023/01/07 05:16:43;;;;;;;6.15;3.83;;;;;;;13.91;62.99;101287.34;6154901;23;20021;-71
2023/01/07 05:19:10;;;;;;;5.78;3.90;;;;;;;13.89;63.00;101281.19;6155154;23;20096;-71
2023/01/07 05:21:41;;;;;;;4.85;4.00;;;;;;;13.88;63.34;101277.66;6156039;23;20422;-72
2023/01/07 05:24:09;;;;;;;4.57;3.80;;;;;;;13.88;63.01;101282.19;6156221;23;20040;-70
2023/01/07 05:26:36;;;;;;;4.85;3.40;;;;;;;13.85;63.18;101283.28;6156142;23;20027;-71
2023/01/07 05:29:03;;;;;;;4.63;3.70;;;;;;;13.83;62.89;101277.13;6155720;23;20021;-71
2023/01/07 05:31:30;;;;;;;4.80;3.45;;;;;;;13.84;63.00;101278.00;6155924;23;20348;-71
2023/01/07 05:33:57;;;;;;;6.70;4.00;;;;;;;13.84;63.30;101283.41;6155893;23;20104;-71
2023/01/07 05:36:25;;;;;;;6.10;3.83;;;;;;;13.86;63.15;101284.16;6156079;23;20045;-70
2023/01/07 05:38:52;;;;;;;5.60;3.88;;;;;;;13.89;63.48;101283.91;6156132;23;20021;-70
2023/01/07 05:41:19;;;;;;;4.55;3.70;;;;;;;13.89;63.39;101284.75;6156026;22;20055;-70
2023/01/07 05:43:46;;;;;;;6.65;3.60;;;;;;;13.92;63.14;101275.56;6155788;23;20047;-69
2023/01/07 05:46:13;;;;;;;6.00;3.97;;;;;;;13.94;63.43;101274.47;6182567;23;20023;-69
2023/01/07 05:48:39;;;;;;;7.28;3.50;;;;;;;13.96;63.10;101277.91;6156520;22;20020;-70
2023/01/07 05:51:06;;;;;;;6.32;3.95;;;;;;;13.99;63.29;101272.25;6182315;23;20399;-70
2023/01/07 05:53:33;;;;;;;4.10;3.40;;;;;;;14.02;63.27;101273.84;6182037;23;20017;-70
2023/01/07 05:56:00;;;;;;;4.15;3.75;;;;;;;14.03;63.24;101270.19;6182288;23;20021;-71
2023/01/07 05:58:27;;;;;;;4.57;3.53;;;;;;;14.05;63.47;101275.47;6182423;23;20013;-71
2023/01/07 06:00:54;;;;;;;4.50;3.40;;;;;;;14.07;63.01;101270.78;6156016;23;20320;-70
2023/01/07 06:03:21;;;;;;;3.67;3.00;;;;;;;14.08;62.87;101267.97;6182004;23;20020;-71
2023/01/07 06:05:48;;;;;;;5.45;3.30;;;;;;;14.09;63.20;101263.44;6156600;22;20505;-69
2023/01/07 06:08:14;;;;;;;3.50;3.13;;;;;;;14.09;62.80;101258.88;6191112;23;20427;-70
2023/01/07 06:10:43;;;;;;;4.85;3.17;;;;;;;14.10;63.11;101255.22;6182829;23;21959;-70
2023/01/07 06:13:09;;;;;;;5.38;3.53;;;;;;;14.11;63.10;101256.94;6181876;23;20040;-70
2023/01/07 06:15:36;;;;;;;4.25;3.00;;;;;;;14.11;63.06;101254.22;6182223;23;20019;-69
2023/01/07 06:18:02;;;;;;;6.35;3.30;;;;;;;14.11;63.01;101250.66;6181923;22;20028;-71
2023/01/07 06:20:33;;;;;;;4.85;3.60;;;;;;;14.12;62.70;101247.88;6182480;23;20084;-70
2023/01/07 06:23:01;;;;;;;5.00;2.83;;;;;;;14.12;62.64;101252.38;6182175;23;20013;-70
2023/01/07 06:25:28;;;;;;;4.55;2.90;;;;;;;14.11;62.68;101245.25;6182025;23;20033;-71
2023/01/07 06:27:57;;;;;;;5.70;2.92;;;;;;;14.12;62.61;101242.47;6182527;23;20013;-71
2023/01/07 06:30:23;;;;;;;4.18;3.00;;;;;;;14.12;62.45;101238.88;6181677;23;20023;-70
2023/01/07 06:32:50;;;;;;;3.40;2.80;;;;;;;14.12;62.67;101234.38;6181342;23;20021;-70
2023/01/07 06:35:16;;;;;;;2.70;2.38;;;;;;;14.12;62.38;101231.66;6182218;23;20159;-71
2023/01/07 06:37:43;;;;;;;3.33;2.60;;;;;;;14.13;62.22;101224.44;6182259;23;20017;-70
2023/01/07 06:40:10;;;;;;;3.17;2.50;;;;;;;14.14;62.25;101226.16;6182093;23;20096;-70
2023/01/07 06:42:37;;;;;;;3.53;2.40;;;;;;;14.14;62.43;101218.03;6181804;23;20013;-71
2023/01/07 06:45:04;;;;;;;2.42;2.22;;;;;;;14.13;62.32;101221.72;6182378;22;20379;-69
2023/01/07 06:47:31;;;;;;;3.22;2.60;;;;;;;14.12;61.96;101207.38;6182104;23;20024;-69
2023/01/07 06:49:57;;;;;;;4.03;2.35;;;;;;;14.11;62.24;101218.25;6155853;22;20397;-70
2023/01/07 06:52:24;;;;;;;4.18;2.60;;;;;;;14.10;62.15;101213.84;6181652;23;20439;-70
2023/01/07 06:54:50;;;;;;;2.85;2.40;;;;;;;14.10;61.94;101213.84;6181786;23;20017;-69
2023/01/07 06:57:21;;;;;;;4.25;2.35;;;;;;;14.10;61.90;101205.72;6182119;23;20514;-69
2023/01/07 06:59:47;;;;;;;3.45;2.00;;;;;;;14.10;62.03;101203.03;6182141;23;20017;-69
2023/01/07 07:02:22;;;;;;;2.67;1.98;;;;;;;14.07;61.60;101195.19;6181417;23;20013;-71
2023/01/07 07:04:49;;;;;;;2.88;2.35;;;;;;;14.07;62.06;101198.72;6181684;23;20017;-69
2023/01/07 07:07:16;;;;;;;2.53;2.28;;;;;;;14.07;61.95;101195.19;6181932;23;20462;-70
2023/01/07 07:09:43;;;;;;;6.60;2.22;;;;;;;14.07;61.54;101190.63;6182001;23;20070;-70
2023/01/07 07:12:10;;;;;;;3.58;2.30;;;;;;;14.06;61.26;101190.75;6181541;23;20063;-71
2023/01/07 07:14:37;;;;;;;3.13;2.15;;;;;;;14.04;61.29;101193.56;6181686;22;20021;-70
2023/01/07 07:17:05;;;;;;;3.35;2.42;;;;;;;14.05;61.51;101189.03;6181843;23;20021;-72
2023/01/07 07:19:31;;;;;;;3.88;2.10;;;;;;;14.05;61.39;101183.63;6181880;23;20017;-70
2023/01/07 07:21:58;;;;;;;4.05;2.40;;;;;;;14.06;61.40;101185.34;6181620;23;20473;-70
2023/01/07 07:24:24;;;;;;;2.17;1.80;;;;;;;14.05;61.47;101187.19;6181991;23;20016;-71
2023/01/07 07:26:51;;;;;;;2.22;1.85;;;;;;;14.05;61.25;101178.22;6181656;23;20020;-71
2023/01/07 07:29:18;;;;;;;2.72;1.83;;;;;;;14.04;61.13;101184.63;6181785;23;20017;-70
2023/01/07 07:31:47;;;;;;;3.00;2.30;;;;;;;14.03;60.91;101183.75;6181235;23;20070;-69
2023/01/07 07:34:13;;;;;;;2.72;2.20;;;;;;;14.04;60.89;101173.81;6181763;23;20095;-69
2023/01/07 07:36:40;;;;;;;5.65;2.00;;;;;;;14.02;61.22;101173.94;6181768;23;20086;-70
2023/01/07 07:39:06;;;;;;;3.20;2.10;;;;;;;14.02;61.04;101170.38;6181914;23;20013;-69
2023/01/07 07:41:33;;;;;;;2.75;1.80;;;;;;;14.00;60.86;101165.97;6155369;23;20108;-69
2023/01/07 07:44:05;;;;;;;2.78;1.83;;;;;;;13.99;60.95;101172.34;6154753;23;20018;-70
2023/01/07 07:46:32;;;;;;;2.88;1.80;;;;;;;13.98;61.03;101165.22;6181649;23;20040;-70
2023/01/07 07:48:59;;;;;;;3.05;2.08;;;;;;;13.96;60.97;101158.22;6181819;23;20362;-70
2023/01/07 07:51:25;;;;;;;3.15;1.88;;;;;;;13.95;60.58;101154.66;6181934;23;20017;-70
2023/01/07 07:53:52;;;;;;;3.08;1.77;;;;;;;13.94;60.70;101152.94;6181488;23;20489;-70
2023/01/07 07:56:19;;;;;;;4.90;2.30;;;;;;;13.93;60.53;101153.94;6181595;23;20009;-70
2023/01/07 07:58:45;;;;;;;5.57;2.25;;;;;;;13.93;60.49;101155.78;6181719;23;20024;-69
2023/01/07 08:01:12;;;;;;;2.97;1.70;;;;;;;13.91;60.59;101153.19;6181334;23;20074;-70
2023/01/07 08:03:38;;;;;;;2.35;1.88;;;;;;;13.93;60.86;101150.38;6181596;23;20439;-70
2023/01/07 08:06:06;;;;;;;2.95;1.95;;;;;;;13.93;60.70;101153.06;6181566;23;20070;-70
2023/01/07 08:08:32;;;;;;;5.00;1.80;;;;;;;13.91;60.72;101153.19;6181680;23;20021;-70
2023/01/07 08:10:59;;;;;;;2.80;1.80;;;;;;;13.92;60.41;101146.81;6181794;23;20063;-71
2023/01/07 08:13:25;;;;;;;4.30;1.55;;;;;;;13.94;60.57;101152.09;6180675;22;20025;-70
2023/01/07 08:15:52;;;;;;;1.80;1.60;;;;;;;13.94;60.61;101149.41;6181635;23;20021;-70
2023/01/07 08:18:19;;;;;;;3.33;1.80;;;;;;;13.95;60.42;101153.81;6181577;23;20074;-70
2023/01/07 08:20:46;;;;;;;1.80;1.60;;;;;;;13.95;60.62;101140.31;6181765;23;20017;-70
2023/01/07 08:23:12;;;;;;;3.05;1.70;;;;;;;13.96;60.23;101137.50;6181536;23;20024;-70
2023/01/07 08:25:39;;;;;;;2.45;1.98;;;;;;;13.99;60.21;101144.47;6181802;23;20016;-72
2023/01/07 08:28:06;;;;;;;2.10;1.80;;;;;;;14.03;60.40;101134.28;6179581;22;20035;-70
2023/01/07 08:30:32;;;;;;;3.17;2.00;;;;;;;14.03;60.48;101143.25;6181352;23;20021;-71
2023/01/07 08:32:59;;;;;;;4.53;1.95;;;;;;;14.04;60.12;101136.00;6154616;23;20021;-70
2023/01/07 08:35:25;;;;;;;2.50;1.70;;;;;;;14.05;60.28;101133.19;6181343;23;20037;-70
2023/01/07 08:37:59;;;;;;;2.30;1.73;;;;;;;14.06;59.97;101134.03;6181462;23;20403;-70
2023/01/07 08:40:26;;;;;;;2.05;1.80;;;;;;;14.07;60.26;101128.53;6180649;22;20033;-70
2023/01/07 08:42:56;;;;;;;6.03;2.70;;;;;;;14.08;60.21;101126.69;6181379;23;20021;-70
2023/01/07 08:45:23;;;;;;;2.38;1.63;;;;;;;14.09;60.21;101120.28;6181383;23;20058;-71
2023/01/07 08:47:50;;;;;;;1.85;1.65;;;;;;;14.11;59.85;101115.63;6181371;23;20013;-70
2023/01/07 08:50:18;;;;;;;1.95;1.70;;;;;;;14.13;59.77;101108.28;6181014;23;20052;-70
2023/01/07 08:52:46;;;;;;;5.07;1.95;;;;;;;14.14;59.67;101112.69;6181054;23;20096;-70
2023/01/07 08:55:12;;;;;;;2.67;1.67;;;;;;;14.16;59.76;101113.44;6180606;23;20082;-71
2023/01/07 08:57:39;;;;;;;3.17;1.85;;;;;;;14.17;60.07;101104.34;6181492;23;20017;-68
2023/01/07 09:00:06;;;;;;;2.60;1.98;;;;;;;14.18;59.83;101111.47;6181497;23;20082;-68
2023/01/07 09:03:01;;;;;;;3.17;1.77;;;;;;;14.18;59.69;101116.88;6180825;22;20078;-69
2023/01/07 09:05:28;;;;;;;1.90;1.70;;;;;;;14.21;59.39;101112.06;6180660;23;20017;-68
2023/01/07 09:07:55;;;;;;;3.50;2.05;;;;;;;14.22;59.50;101112.94;6180457;23;20455;-68
2023/01/07 09:10:22;;;;;;;3.22;1.90;;;;;;;14.23;59.31;101109.25;6181371;23;20070;-69
2023/01/07 09:12:49;;;;;;;3.00;1.80;;;;;;;14.24;59.57;101113.66;6179510;23;20296;-66
2023/01/07 09:15:16;;;;;;;3.53;1.90;;;;;;;14.25;59.45;101109.97;6178931;22;20027;-67
2023/01/07 09:17:42;;;;;;;2.13;1.80;;;;;;;14.26;59.70;101104.44;6180923;23;20024;-67
2023/01/07 09:20:09;;;;;;;2.63;1.55;;;;;;;14.28;59.18;101099.78;6180583;23;20018;-67
2023/01/07 09:22:36;;;;;;;1.70;1.60;;;;;;;14.28;59.13;101097.06;6180892;23;20017;-67
2023/01/07 09:25:04;;;;;;;2.38;1.88;;;;;;;14.30;59.42;101096.94;6180770;23;20536;-67
2023/01/07 09:27:31;;;;;;;2.45;1.60;;;;;;;14.31;59.33;101102.22;6181009;22;20017;-67
2023/01/07 09:29:58;;;;;;;2.30;1.92;;;;;;;14.32;59.25;101085.03;6181140;23;20009;-67
2023/01/07 09:32:25;;;;;;;2.05;1.55;;;;;;;14.33;59.10;101091.28;6180288;23;20021;-67
2023/01/07 09:34:51;;;;;;;4.10;1.83;;;;;;;14.33;58.72;101085.88;6180974;23;20096;-68
2023/01/07 09:37:18;;;;;;;2.15;1.52;;;;;;;14.35;58.97;101083.06;6180844;23;20386;-67
2023/01/07 09:39:45;;;;;;;2.88;1.70;;;;;;;14.35;58.77;101081.22;6181231;23;20024;-67
2023/01/07 09:42:11;;;;;;;3.28;1.70;;;;;;;14.38;58.78;101074.69;6180414;23;20017;-67
2023/01/07 09:45:07;;;;;;;3.35;1.80;;;;;;;14.39;58.47;101077.28;6180850;23;20095;-67
2023/01/07 09:47:36;;;;;;;1.67;1.50;;;;;;;14.44;58.64;101076.91;6180835;23;20091;-67
2023/01/07 09:50:13;;;;;;;3.25;1.73;;;;;;;14.46;58.46;101073.09;6181119;23;20013;-68
2023/01/07 09:52:47;;;;;;;4.75;1.90;;;;;;;14.48;58.35;101070.28;6180770;23;20352;-67
2023/01/07 09:55:19;;;;;;;3.05;1.63;;;;;;;14.48;58.55;101065.72;6180665;23;20220;-67
2023/01/07 09:57:46;;;;;;;2.45;1.60;;;;;;;14.51;58.51;101072.72;6180638;23;20039;-67
2023/01/07 10:00:21;;;;;;;2.00;1.33;;;;;;;14.53;58.26;101068.03;6154480;23;20034;-67
2023/01/07 10:02:50;;;;;;;2.92;1.40;;;;;;;14.54;58.21;101065.22;6180386;23;20021;-67
2023/01/07 10:05:17;;;;;;;1.92;1.30;;;;;;;14.58;58.28;101060.41;6180541;23;20054;-66
2023/01/07 10:07:49;;;;;;;2.42;1.42;;;;;;;14.59;58.30;101054.88;6182111;23;20025;-67
2023/01/07 10:10:25;;;;;;;2.13;1.48;;;;;;;14.63;58.14;101047.34;6181892;23;20457;-67
2023/01/07 10:13:03;;;;;;;4.05;1.40;;;;;;;14.67;58.12;101042.53;6154968;23;20031;-67
2023/01/07 10:15:46;;;;;;;1.80;1.50;;;;;;;14.69;58.23;101036.03;6181147;23;20016;-67
2023/01/07 10:18:40;;;;;;;2.80;1.30;;;;;;;14.74;57.73;101027.50;6182496;23;20017;-67
2023/01/07 10:21:26;;;;;;;1.35;1.25;;;;;;;14.85;58.03;101024.75;6181777;23;20374;-68
2023/01/07 10:24:04;;;;;;;3.83;2.15;;;;;;;14.97;58.10;101014.75;6182204;23;20017;-67
2023/01/07 10:26:38;;;;;;;2.38;1.20;;;;;;;15.07;58.01;101013.81;6181914;23;20052;-67
2023/01/07 10:29:15;;;;;;;1.52;1.10;;;;;;;15.19;57.91;101006.47;6181989;23;20017;-68
2023/01/07 10:31:44;;;;;;;2.97;1.60;;;;;;;15.27;57.68;100993.13;6153964;23;20017;-68
2023/01/07 10:34:27;;;;;;;1.40;1.30;;;;;;;15.35;56.92;100987.88;6181097;23;20021;-68
2023/01/07 10:37:26;;;;;;;2.08;1.50;;;;;;;15.42;57.27;100980.09;6181204;23;20496;-67
2023/01/07 10:40:11;;;;;;;1.92;1.70;;;;;;;15.49;56.99;100973.13;6181246;23;20036;-67
2023/01/07 10:43:12;;;;;;;2.53;1.70;;;;;;;15.53;56.35;100967.28;6181661;23;20027;-68
2023/01/07 10:45:53;;;;;;;2.33;1.50;;;;;;;15.60;56.51;100964.06;6181788;23;20091;-67
2023/01/07 10:48:47;;;;;;;1.63;1.40;;;;;;;15.63;56.50;100950.28;6181946;23;20088;-67
2023/01/07 10:51:43;;;;;;;2.20;1.52;;;;;;;15.70;56.15;100941.47;6181779;23;20439;-67
2023/01/07 10:54:28;;;;;;;2.17;1.80;;;;;;;15.77;55.97;100933.66;6181809;23;20013;-67
2023/01/07 10:57:02;;;;;;;1.95;1.30;;;;;;;15.79;55.99;100929.78;6155277;23;20021;-70
2023/01/07 10:59:29;;;;;;;2.17;1.52;;;;;;;15.82;55.32;100924.09;6181863;23;20009;-68
2023/01/07 11:01:57;;;;;;;1.23;1.13;;;;;;;15.82;55.15;100924.09;6181343;23;20100;-69
2023/01/07 11:04:25;;;;;;;2.58;1.30;;;;;;;15.82;54.70;100924.09;6181625;23;20040;-68
2023/01/07 11:07:03;;;;;;;2.63;1.75;;;;;;;15.85;54.73;100922.97;6182082;23;20037;-70
2023/01/07 11:09:34;;;;;;;1.73;1.60;;;;;;;15.89;54.61;100924.38;6181667;23;20020;-68
2023/01/07 11:12:25;;;;;;;1.50;1.30;;;;;;;15.92;54.58;100907.84;6181589;23;20016;-68
2023/01/07 11:14:55;;;;;;;1.50;1.40;;;;;;;15.99;54.68;100913.56;6181668;23;20023;-69
2023/01/07 11:17:34;;;;;;;1.48;1.10;;;;;;;16.01;54.51;100914.28;6181566;23;20362;-68
2023/01/07 11:20:03;;;;;;;2.00;1.55;;;;;;;16.03;54.37;100913.13;6182074;23;20343;-69
2023/01/07 11:22:32;;;;;;;2.22;1.10;;;;;;;16.05;54.10;100896.72;6181438;23;20021;-68
2023/01/07 11:25:01;;;;;;;2.88;1.27;;;;;;;16.08;54.44;100891.88;6181201;22;20040;-69
2023/01/07 11:27:30;;;;;;;1.98;1.38;;;;;;;16.09;54.07;100890.03;6182025;23;20029;-69
2023/01/07 11:30:18;;;;;;;1.20;1.10;;;;;;;16.07;54.07;100883.91;6155260;23;20321;-69
2023/01/07 11:32:55;;;;;;;1.45;1.10;;;;;;;16.06;53.61;100890.31;6181622;23;20318;-69
2023/01/07 11:35:22;;;;;;;2.60;0.93;;;;;;;16.07;53.81;100878.47;6181572;23;20049;-68
2023/01/07 11:37:49;;;;;;;1.52;1.02;;;;;;;16.07;53.81;100875.78;6155591;23;20458;-68
2023/01/07 11:40:21;;;;;;;2.63;1.00;;;;;;;16.09;53.61;100865.66;6181608;23;20391;-69
2023/01/07 11:43:00;;;;;;;3.30;1.05;;;;;;;16.17;53.92;100868.50;6181867;23;20013;-69
2023/01/07 11:45:31;;;;;;;5.13;1.27;;;;;;;16.20;53.71;100865.50;6181480;23;20028;-69